createdAt,value
2018-02-21T00:02:06.566Z,32.70
2018-02-21T00:04:35.406Z,34.70
2018-02-21T00:07:03.843Z,30.47
2018-02-21T00:09:32.027Z,29.60
2018-02-21T00:12:00.103Z,30.48
2018-02-21T00:14:28.274Z,28.90
2018-02-21T00:16:56.462Z,30.37
2018-02-21T00:19:24.626Z,29.60
2018-02-21T00:21:52.810Z,31.50
2018-02-21T00:24:20.893Z,30.23
2018-02-21T00:26:49.063Z,31.05
2018-02-21T00:29:17.130Z,31.02
2018-02-21T00:31:45.218Z,31.10
2018-02-21T00:34:13.282Z,31.40
2018-02-21T00:36:41.353Z,31.20
2018-02-21T00:39:09.461Z,32.30
2018-02-21T00:41:37.629Z,31.90
2018-02-21T00:44:05.687Z,28.50
2018-02-21T00:46:34.321Z,32.60
2018-02-21T00:49:04.274Z,31.17
2018-02-21T00:51:32.374Z,33.80
2018-02-21T00:54:00.526Z,28.90
2018-02-21T00:56:28.643Z,30.90
2018-02-21T00:58:56.813Z,29.77
2018-02-21T01:01:24.890Z,31.87
2018-02-21T01:03:52.958Z,29.00
2018-02-21T01:06:21.024Z,30.83
2018-02-21T01:08:49.105Z,28.67
2018-02-21T01:11:17.182Z,30.50
2018-02-21T01:13:45.281Z,31.30
2018-02-21T01:16:13.355Z,30.50
2018-02-21T01:18:41.510Z,33.07
2018-02-21T01:21:09.706Z,33.96
2018-02-21T01:23:37.794Z,32.10
2018-02-21T01:26:05.870Z,30.92
2018-02-21T01:28:35.550Z,32.40
2018-02-21T01:31:04.779Z,31.10
2018-02-21T01:33:32.845Z,32.80
2018-02-21T01:36:00.930Z,31.48
2018-02-21T01:38:29.518Z,31.97
2018-02-21T01:40:57.698Z,30.77
2018-02-21T01:43:26.587Z,31.67
2018-02-21T01:45:54.659Z,32.83
2018-02-21T01:48:22.850Z,33.47
2018-02-21T01:50:52.735Z,31.33
2018-02-21T01:53:20.814Z,33.45
2018-02-21T01:55:48.882Z,33.83
2018-02-21T01:58:17.661Z,31.77
2018-02-21T02:00:45.741Z,34.50
2018-02-21T02:03:13.866Z,36.13
2018-02-21T02:05:41.953Z,33.20
2018-02-21T02:08:10.038Z,34.40
2018-02-21T02:10:38.203Z,33.20
2018-02-21T02:13:06.286Z,35.30
2018-02-21T02:15:35.484Z,39.47
2018-02-21T02:18:03.650Z,34.70
2018-02-21T02:20:31.722Z,36.37
2018-02-21T02:22:59.813Z,32.30
2018-02-21T02:25:27.981Z,36.47
2018-02-21T02:27:56.162Z,31.23
2018-02-21T02:30:24.226Z,32.10
2018-02-21T02:32:53.210Z,34.67
2018-02-21T02:35:21.273Z,33.03
2018-02-21T02:37:49.350Z,37.03
2018-02-21T02:40:17.474Z,38.15
2018-02-21T02:42:46.626Z,33.90
2018-02-21T02:45:14.739Z,35.83
2018-02-21T02:47:42.825Z,35.30
2018-02-21T02:50:10.892Z,32.40
2018-02-21T02:52:39.070Z,36.10
2018-02-21T02:55:07.248Z,35.53
2018-02-21T02:57:36.639Z,37.75
2018-02-21T03:00:06.604Z,35.93
2018-02-21T03:02:35.884Z,34.27
2018-02-21T03:05:03.962Z,36.00
2018-02-21T03:07:32.038Z,35.27
2018-02-21T03:10:00.119Z,34.33
2018-02-21T03:12:28.290Z,38.63
2018-02-21T03:14:56.366Z,33.77
2018-02-21T03:17:24.549Z,35.20
2018-02-21T03:19:52.620Z,34.83
2018-02-21T03:22:20.798Z,32.75
2018-02-21T03:24:48.982Z,34.27
2018-02-21T03:27:17.053Z,34.43
2018-02-21T03:29:45.135Z,35.25
2018-02-21T03:32:13.205Z,33.50
2018-02-21T03:34:41.379Z,30.60
2018-02-21T03:37:09.461Z,37.25
2018-02-21T03:39:37.546Z,32.77
2018-02-21T03:42:07.116Z,30.23
2018-02-21T03:44:36.914Z,29.47
2018-02-21T03:47:04.984Z,31.17
2018-02-21T03:49:34.393Z,32.27
2018-02-21T03:52:02.526Z,32.30
2018-02-21T03:54:30.603Z,28.87
2018-02-21T03:56:58.848Z,31.52
2018-02-21T03:59:26.922Z,31.73
2018-02-21T04:01:55.034Z,32.10
2018-02-21T04:04:23.113Z,34.67
2018-02-21T04:06:52.327Z,34.27
2018-02-21T04:09:20.391Z,31.95
2018-02-21T04:11:48.565Z,32.37
2018-02-21T04:14:17.586Z,29.80
2018-02-21T04:16:45.645Z,32.72
2018-02-21T04:19:13.735Z,32.93
2018-02-21T04:21:41.890Z,29.87
2018-02-21T04:24:10.072Z,31.48
2018-02-21T04:26:38.354Z,29.50
2018-02-21T04:29:06.869Z,30.15
2018-02-21T04:31:37.593Z,32.00
2018-02-21T04:34:06.796Z,31.13
2018-02-21T04:36:34.957Z,29.87
2018-02-21T04:39:03.781Z,30.80
2018-02-21T04:41:32.626Z,29.33
2018-02-21T04:44:00.690Z,28.83
2018-02-21T04:46:28.750Z,30.03
2018-02-21T04:48:56.831Z,30.30
2018-02-21T04:51:24.889Z,28.55
2018-02-21T04:53:53.738Z,29.27
2018-02-21T04:59:35.521Z,27.63
2018-02-21T05:02:04.394Z,24.50
2018-02-21T05:04:32.513Z,25.00
2018-02-21T05:07:00.572Z,26.30
2018-02-21T05:09:28.684Z,25.33
2018-02-21T05:11:58.280Z,27.70
2018-02-21T05:14:26.360Z,28.07
2018-02-21T05:16:54.422Z,25.20
2018-02-21T05:19:22.522Z,27.87
2018-02-21T05:21:50.590Z,24.83
2018-02-21T05:24:18.666Z,27.03
2018-02-21T05:26:46.758Z,26.42
2018-02-21T05:29:15.626Z,25.10
2018-02-21T05:31:43.698Z,28.87
2018-02-21T05:34:11.795Z,26.33
2018-02-21T05:36:39.858Z,27.17
2018-02-21T05:39:07.926Z,28.15
2018-02-21T05:41:35.986Z,26.80
2018-02-21T05:44:04.078Z,27.98
2018-02-21T05:46:32.166Z,29.20
2018-02-21T05:49:00.240Z,29.23
2018-02-21T05:51:28.314Z,27.57
2018-02-21T05:53:56.382Z,30.40
2018-02-21T05:56:24.449Z,27.08
2018-02-21T05:58:52.530Z,27.93
2018-02-21T06:01:20.589Z,27.95
2018-02-21T06:03:48.662Z,30.37
2018-02-21T06:06:16.735Z,30.15
2018-02-21T06:08:44.810Z,30.57
2018-02-21T06:11:12.993Z,32.83
2018-02-21T06:13:41.067Z,30.80
2018-02-21T06:16:09.130Z,32.45
2018-02-21T06:18:38.678Z,33.60
2018-02-21T06:21:07.869Z,32.83
2018-02-21T06:23:35.942Z,31.58
2018-02-21T06:26:04.051Z,31.55
2018-02-21T06:28:32.119Z,29.60
2018-02-21T06:31:00.196Z,31.05
2018-02-21T06:33:28.774Z,32.10
2018-02-21T06:35:56.851Z,33.57
2018-02-21T06:38:24.910Z,32.15
2018-02-21T06:40:52.998Z,32.23
2018-02-21T06:43:21.077Z,30.95
2018-02-21T06:45:49.158Z,32.60
2018-02-21T06:48:17.262Z,33.83
2018-02-21T06:50:45.688Z,33.90
2018-02-21T06:53:13.742Z,31.43
2018-02-21T06:55:42.598Z,33.40
2018-02-21T06:58:10.692Z,31.80
2018-02-21T07:00:38.746Z,31.33
2018-02-21T07:03:06.821Z,32.08
2018-02-21T07:05:34.906Z,30.30
2018-02-21T07:08:02.970Z,31.30
2018-02-21T07:10:31.072Z,30.10
2018-02-21T07:12:59.230Z,30.80
2018-02-21T07:15:27.393Z,31.47
2018-02-21T07:17:55.486Z,34.37
2018-02-21T07:20:23.567Z,33.27
2018-02-21T07:22:53.243Z,32.50
2018-02-21T07:25:21.317Z,35.53
2018-02-21T07:27:49.434Z,31.33
2018-02-21T07:30:17.609Z,30.95
2018-02-21T07:32:45.679Z,30.87
2018-02-21T07:35:13.890Z,31.77
2018-02-21T07:37:41.951Z,34.17
2018-02-21T07:40:10.027Z,31.25
2018-02-21T07:42:40.051Z,32.38
2018-02-21T07:45:09.568Z,34.84
2018-02-21T07:47:38.753Z,32.87
2018-02-21T07:50:06.919Z,33.30
2018-02-21T07:52:34.978Z,33.90
2018-02-21T07:55:03.060Z,34.13
2018-02-21T07:57:31.117Z,34.17
2018-02-21T07:59:59.195Z,34.35
2018-02-21T08:02:27.277Z,34.92
2018-02-21T08:04:55.334Z,32.80
2018-02-21T08:07:23.397Z,34.72
2018-02-21T08:09:52.654Z,33.10
2018-02-21T08:12:20.710Z,35.50
2018-02-21T08:14:48.782Z,33.37
2018-02-21T08:17:16.851Z,33.47
2018-02-21T08:19:44.934Z,33.87
2018-02-21T08:22:13.038Z,36.00
2018-02-21T08:24:41.110Z,33.97
2018-02-21T08:27:09.194Z,34.60
2018-02-21T08:29:37.270Z,35.20
2018-02-21T08:32:05.358Z,33.87
2018-02-21T08:34:33.435Z,36.07
2018-02-21T08:37:01.599Z,33.47
2018-02-21T08:39:29.682Z,33.77
2018-02-21T08:41:57.747Z,34.90
2018-02-21T08:44:25.825Z,30.50
2018-02-21T08:46:53.901Z,33.07
2018-02-21T08:49:21.961Z,31.73
2018-02-21T08:51:50.027Z,30.63
2018-02-21T08:54:18.100Z,76.97
2018-02-21T08:56:46.169Z,33.33
2018-02-21T08:59:14.221Z,35.72
2018-02-21T09:01:43.066Z,31.97
2018-02-21T09:04:11.150Z,31.60
2018-02-21T09:06:40.341Z,30.48
2018-02-21T09:09:09.534Z,31.67
2018-02-21T09:11:37.635Z,33.65
2018-02-21T09:14:05.693Z,35.35
2018-02-21T09:16:33.858Z,33.17
2018-02-21T09:19:01.855Z,32.10
2018-02-21T09:21:29.931Z,31.43
2018-02-21T09:23:57.994Z,34.00
2018-02-21T09:26:26.066Z,33.23
2018-02-21T09:28:54.128Z,33.60
2018-02-21T09:31:22.190Z,34.13
2018-02-21T09:33:51.045Z,32.57
2018-02-21T09:36:19.121Z,36.80
2018-02-21T09:38:47.183Z,34.87
2018-02-21T09:41:15.853Z,33.42
2018-02-21T09:43:43.958Z,33.92
2018-02-21T09:46:12.025Z,35.00
2018-02-21T09:48:40.107Z,34.07
2018-02-21T09:51:08.294Z,35.38
2018-02-21T09:53:36.370Z,33.00
2018-02-21T09:56:04.438Z,32.40
2018-02-21T09:58:32.513Z,34.07
2018-02-21T10:01:00.636Z,32.80
2018-02-21T10:03:28.638Z,32.37
2018-02-21T10:05:56.704Z,38.15
2018-02-21T10:08:24.826Z,35.00
2018-02-21T10:10:52.910Z,35.47
2018-02-21T10:13:20.992Z,36.03
2018-02-21T10:15:49.158Z,34.17
2018-02-21T10:18:17.229Z,37.83
2018-02-21T10:20:45.310Z,38.03
2018-02-21T10:23:13.491Z,35.27
2018-02-21T10:25:41.646Z,35.40
2018-02-21T10:28:10.356Z,34.42
2018-02-21T10:30:38.601Z,32.77
2018-02-21T10:33:06.653Z,34.13
2018-02-21T10:35:35.474Z,34.73
2018-02-21T10:38:03.545Z,36.58
2018-02-21T10:40:31.994Z,35.53
2018-02-21T10:43:00.138Z,33.83
2018-02-21T10:45:28.209Z,34.50
2018-02-21T10:47:56.282Z,36.33
2018-02-21T10:50:24.715Z,35.70
2018-02-21T10:52:53.565Z,36.67
2018-02-21T10:55:22.370Z,35.23
2018-02-21T10:57:50.557Z,34.20
2018-02-21T11:00:24.138Z,32.63
2018-02-21T11:02:52.345Z,35.43
2018-02-21T11:05:20.404Z,33.92
2018-02-21T11:07:48.582Z,34.83
2018-02-21T11:10:16.645Z,35.08
2018-02-21T11:12:44.715Z,34.05
2018-02-21T11:15:13.609Z,34.23
2018-02-21T11:17:41.686Z,32.93
2018-02-21T11:20:11.642Z,32.90
2018-02-21T11:22:40.929Z,35.47
2018-02-21T11:25:09.211Z,35.25
2018-02-21T11:27:37.283Z,32.33
2018-02-21T11:30:05.335Z,37.50
2018-02-21T11:32:33.442Z,35.63
2018-02-21T11:35:01.500Z,34.53
2018-02-21T11:37:29.554Z,34.87
2018-02-21T11:39:57.669Z,36.43
2018-02-21T11:42:25.726Z,33.80
2018-02-21T11:44:53.822Z,31.83
2018-02-21T11:47:21.897Z,32.90
2018-02-21T11:49:49.962Z,34.77
2018-02-21T11:52:18.014Z,34.60
2018-02-21T11:54:46.075Z,35.70
2018-02-21T11:57:14.898Z,33.53
2018-02-21T11:59:42.994Z,37.03
2018-02-21T12:02:11.285Z,34.58
2018-02-21T12:04:39.368Z,33.17
2018-02-21T12:07:07.411Z,32.60
2018-02-21T12:09:35.490Z,35.77
2018-02-21T12:12:03.571Z,34.10
2018-02-21T12:14:31.634Z,30.60
2018-02-21T12:16:59.696Z,34.50
2018-02-21T12:19:27.810Z,37.20
2018-02-21T12:21:55.892Z,35.63
2018-02-21T12:24:23.950Z,34.00
2018-02-21T12:26:52.150Z,36.97
2018-02-21T12:29:20.242Z,37.60
2018-02-21T12:31:49.087Z,34.13
2018-02-21T12:34:17.170Z,31.80
2018-02-21T12:36:45.235Z,29.17
2018-02-21T12:39:18.850Z,30.17
2018-02-21T12:41:46.914Z,29.93
2018-02-21T12:44:14.973Z,27.40
2018-02-21T12:46:43.095Z,29.67
2018-02-21T12:49:12.577Z,28.43
2018-02-21T12:51:41.757Z,29.93
2018-02-21T12:54:11.706Z,30.85
2018-02-21T12:56:39.800Z,29.40
2018-02-21T12:59:07.862Z,31.80
2018-02-21T13:01:35.957Z,30.53
2018-02-21T13:04:04.030Z,32.30
2018-02-21T13:06:32.098Z,33.40
2018-02-21T13:09:00.155Z,34.40
2018-02-21T13:11:28.230Z,34.43
2018-02-21T13:13:56.301Z,32.20
2018-02-21T13:16:24.789Z,31.60
2018-02-21T13:18:52.899Z,32.50
2018-02-21T13:21:21.033Z,32.67
2018-02-21T13:23:49.050Z,30.50
2018-02-21T13:26:17.114Z,33.28
2018-02-21T13:28:45.928Z,36.80
2018-02-21T13:31:14.249Z,37.03
2018-02-21T13:33:42.395Z,37.27
2018-02-21T13:36:10.470Z,38.47
2018-02-21T13:38:38.649Z,35.43
2018-02-21T13:41:06.702Z,35.97
2018-02-21T13:43:34.790Z,35.50
2018-02-21T13:46:02.858Z,36.63
2018-02-21T13:48:30.934Z,35.43
2018-02-21T13:50:59.014Z,39.65
2018-02-21T13:53:27.092Z,36.23
2018-02-21T13:55:55.166Z,34.63
2018-02-21T13:58:23.238Z,36.17
2018-02-21T14:00:52.167Z,37.97
2018-02-21T14:03:20.243Z,38.10
2018-02-21T14:05:48.313Z,38.13
2018-02-21T14:08:16.382Z,37.80
2018-02-21T14:10:44.563Z,37.53
2018-02-21T14:13:13.938Z,32.93
2018-02-21T14:15:42.867Z,39.33
2018-02-21T14:18:10.925Z,36.93
2018-02-21T14:20:39.016Z,38.27
2018-02-21T14:23:07.083Z,38.40
2018-02-21T14:25:35.277Z,34.37
2018-02-21T14:28:03.336Z,37.97
2018-02-21T14:30:31.410Z,37.17
2018-02-21T14:32:59.485Z,38.70
2018-02-21T14:35:27.554Z,39.60
2018-02-21T14:37:55.639Z,37.27
2018-02-21T14:40:23.712Z,37.13
2018-02-21T14:42:53.037Z,38.83
2018-02-21T14:45:21.114Z,38.13
2018-02-21T14:47:49.238Z,36.00
2018-02-21T14:50:17.317Z,37.50
2018-02-21T14:52:45.378Z,37.53
2018-02-21T14:55:13.506Z,37.83
2018-02-21T14:57:41.577Z,40.47
2018-02-21T15:00:09.658Z,40.43
2018-02-21T15:02:37.727Z,35.00
2018-02-21T15:05:05.814Z,38.88
2018-02-21T15:07:33.897Z,39.20
2018-02-21T15:10:02.066Z,37.63
2018-02-21T15:12:30.177Z,43.00
2018-02-21T15:14:58.995Z,37.08
2018-02-21T15:17:27.075Z,39.53
2018-02-21T15:19:55.142Z,38.47
2018-02-21T15:22:23.974Z,39.20
2018-02-21T15:24:53.035Z,39.17
2018-02-21T15:27:21.104Z,39.17
2018-02-21T15:29:49.171Z,39.57
2018-02-21T15:32:18.640Z,37.93
2018-02-21T15:34:46.719Z,39.50
2018-02-21T15:37:14.782Z,37.60
2018-02-21T15:39:44.571Z,38.58
2018-02-21T15:42:13.775Z,36.93
2018-02-21T15:44:41.850Z,39.92
2018-02-21T15:47:09.966Z,37.53
2018-02-21T15:49:37.977Z,35.80
2018-02-21T15:52:06.826Z,40.70
2018-02-21T15:54:34.918Z,38.28
2018-02-21T15:57:02.998Z,38.35
2018-02-21T15:59:32.386Z,41.50
2018-02-21T16:02:00.826Z,39.27
2018-02-21T16:04:28.882Z,37.13
2018-02-21T16:06:56.946Z,41.27
2018-02-21T16:09:25.010Z,39.75
2018-02-21T16:11:53.186Z,41.87
2018-02-21T16:14:21.251Z,37.80
2018-02-21T16:16:49.345Z,39.77
2018-02-21T16:19:17.515Z,37.87
2018-02-21T16:21:45.894Z,44.03
2018-02-21T16:24:15.071Z,40.87
2018-02-21T16:26:44.268Z,37.50
2018-02-21T16:29:12.369Z,39.17
2018-02-21T16:31:40.457Z,40.08
2018-02-21T16:34:08.531Z,38.05
2018-02-21T16:36:36.600Z,37.93
2018-02-21T16:39:04.678Z,38.60
2018-02-21T16:41:32.761Z,37.60
2018-02-21T16:44:00.821Z,39.63
2018-02-21T16:46:28.911Z,36.80
2018-02-21T16:48:56.970Z,40.68
2018-02-21T16:51:25.026Z,39.13
2018-02-21T16:53:58.598Z,40.57
2018-02-21T16:56:27.442Z,41.90
2018-02-21T16:58:55.531Z,39.17
2018-02-21T17:01:23.718Z,40.10
2018-02-21T17:03:52.311Z,40.67
2018-02-21T17:06:20.382Z,41.60
2018-02-21T17:08:48.442Z,38.57
2018-02-21T17:11:16.630Z,39.33
2018-02-21T17:13:45.599Z,35.72
2018-02-21T17:16:14.791Z,40.57
2018-02-21T17:18:42.866Z,38.60
2018-02-21T17:21:10.936Z,36.37
2018-02-21T17:23:39.002Z,39.20
2018-02-21T17:26:07.840Z,38.85
2018-02-21T17:28:35.909Z,37.07
2018-02-21T17:31:03.970Z,38.40
2018-02-21T17:33:32.077Z,39.00
2018-02-21T17:36:00.158Z,39.20
2018-02-21T17:38:28.226Z,42.97
2018-02-21T17:41:01.738Z,39.47
2018-02-21T17:43:29.916Z,39.70
2018-02-21T17:45:57.984Z,39.90
2018-02-21T17:48:26.044Z,40.15
2018-02-21T17:50:54.108Z,40.00
2018-02-21T17:53:22.186Z,40.03
2018-02-21T17:55:50.290Z,39.60
2018-02-21T17:58:18.366Z,41.43
2018-02-21T18:00:46.453Z,41.92
2018-02-21T18:03:16.251Z,40.17
2018-02-21T18:05:45.422Z,40.47
2018-02-21T18:08:13.549Z,40.80
2018-02-21T18:10:41.730Z,40.37
2018-02-21T18:13:09.953Z,41.33
2018-02-21T18:15:38.798Z,41.73
2018-02-21T18:18:06.996Z,43.58
2018-02-21T18:20:35.862Z,38.97
2018-02-21T18:23:04.089Z,41.63
2018-02-21T18:25:32.137Z,40.90
2018-02-21T18:28:00.230Z,40.92
2018-02-21T18:30:29.227Z,39.97
2018-02-21T18:32:58.089Z,41.33
2018-02-21T18:35:26.270Z,41.03
2018-02-21T18:37:54.349Z,46.20
2018-02-21T18:40:22.437Z,44.10
2018-02-21T18:42:50.504Z,41.65
2018-02-21T18:45:18.649Z,40.00
2018-02-21T18:47:46.806Z,40.80
2018-02-21T18:50:17.694Z,42.70
2018-02-21T18:52:46.778Z,41.97
2018-02-21T18:55:16.787Z,45.90
2018-02-21T18:57:46.852Z,43.53
2018-02-21T19:00:16.040Z,45.73
2018-02-21T19:02:44.114Z,42.35
2018-02-21T19:05:12.194Z,41.30
2018-02-21T19:07:40.351Z,42.20
2018-02-21T19:10:08.554Z,42.90
2018-02-21T19:12:36.621Z,42.63
2018-02-21T19:15:04.686Z,41.40
2018-02-21T19:17:32.929Z,42.87
2018-02-21T19:20:01.752Z,40.03
2018-02-21T19:22:29.849Z,38.67
2018-02-21T19:24:58.399Z,39.63
2018-02-21T19:27:26.609Z,40.53
2018-02-21T19:29:54.820Z,41.80
2018-02-21T19:32:22.973Z,51.53
2018-02-21T19:34:52.296Z,46.78
2018-02-21T19:37:21.176Z,42.92
2018-02-21T19:39:49.290Z,42.83
2018-02-21T19:42:18.130Z,40.27
2018-02-21T19:44:47.546Z,40.63
2018-02-21T19:47:16.833Z,41.77
2018-02-21T19:49:45.032Z,43.17
2018-02-21T19:52:13.152Z,44.20
2018-02-21T19:54:42.059Z,42.77
2018-02-21T19:57:10.233Z,42.62
2018-02-21T19:59:38.330Z,45.37
2018-02-21T20:02:06.434Z,45.63
2018-02-21T20:04:34.518Z,43.53
2018-02-21T20:07:02.605Z,44.37
2018-02-21T20:09:30.666Z,46.53
2018-02-21T20:11:58.946Z,42.90
2018-02-21T20:14:27.030Z,44.33
2018-02-21T20:16:55.129Z,42.83
2018-02-21T20:19:23.982Z,50.50
2018-02-21T20:21:53.160Z,46.42
2018-02-21T20:24:21.293Z,43.10
2018-02-21T20:26:49.374Z,44.03
2018-02-21T20:29:17.470Z,44.97
2018-02-21T20:31:47.433Z,46.60
2018-02-21T20:34:15.626Z,46.13
2018-02-21T20:36:43.761Z,46.63
2018-02-21T20:39:11.830Z,48.23
2018-02-21T20:41:39.894Z,43.80
2018-02-21T20:44:08.745Z,44.50
2018-02-21T20:46:36.926Z,45.97
2018-02-21T20:49:05.014Z,45.63
2018-02-21T20:51:33.118Z,48.70
2018-02-21T20:54:01.978Z,48.47
2018-02-21T20:56:30.059Z,45.00
2018-02-21T20:58:58.232Z,46.97
2018-02-21T21:01:26.407Z,47.20
2018-02-21T21:03:55.239Z,48.83
2018-02-21T21:06:24.073Z,47.08
2018-02-21T21:08:52.357Z,49.00
2018-02-21T21:11:20.444Z,49.77
2018-02-21T21:13:48.510Z,47.00
2018-02-21T21:16:16.590Z,46.90
2018-02-21T21:18:44.686Z,46.73
2018-02-21T21:21:12.782Z,45.90
2018-02-21T21:23:40.861Z,49.77
2018-02-21T21:26:08.983Z,46.57
2018-02-21T21:28:37.070Z,47.13
2018-02-21T21:31:05.172Z,46.15
2018-02-21T21:33:33.346Z,47.58
2018-02-21T21:36:01.508Z,46.50
2018-02-21T21:38:29.601Z,45.47
2018-02-21T21:40:57.738Z,47.20
2018-02-21T21:43:25.832Z,49.27
2018-02-21T21:45:54.030Z,47.93
2018-02-21T21:48:22.101Z,47.07
2018-02-21T21:50:50.289Z,51.00
2018-02-21T21:53:19.493Z,47.42
2018-02-21T21:55:48.699Z,47.03
2018-02-21T21:58:16.940Z,45.90
2018-02-21T22:00:46.040Z,44.63
2018-02-21T22:03:14.158Z,44.67
2018-02-21T22:05:42.238Z,46.27
2018-02-21T22:08:10.454Z,45.33
2018-02-21T22:10:39.410Z,43.27
2018-02-21T22:13:07.574Z,43.60
2018-02-21T22:15:35.760Z,43.33
2018-02-21T22:18:03.950Z,43.60
2018-02-21T22:20:32.194Z,43.13
2018-02-21T22:23:00.254Z,43.50
2018-02-21T22:25:29.093Z,38.90
2018-02-21T22:27:57.357Z,41.50
2018-02-21T22:30:25.421Z,43.50
2018-02-21T22:32:53.500Z,43.22
2018-02-21T22:35:21.677Z,46.17
2018-02-21T22:37:49.742Z,42.37
2018-02-21T22:40:18.998Z,46.43
2018-02-21T22:42:47.069Z,44.15
2018-02-21T22:45:15.151Z,42.40
2018-02-21T22:47:43.314Z,43.92
2018-02-21T22:50:11.482Z,41.97
2018-02-21T22:52:40.989Z,42.47
2018-02-21T22:55:09.071Z,43.85
2018-02-21T22:57:37.142Z,39.70
2018-02-21T23:00:05.225Z,39.22
2018-02-21T23:02:34.218Z,43.17
2018-02-21T23:05:02.406Z,41.27
2018-02-21T23:07:30.550Z,37.78
2018-02-21T23:09:58.626Z,39.30
2018-02-21T23:12:26.758Z,39.95
2018-02-21T23:14:54.849Z,41.13
2018-02-21T23:17:23.875Z,38.67
2018-02-21T23:19:51.970Z,37.40
2018-02-21T23:22:20.387Z,36.20
2018-02-21T23:24:48.565Z,37.57
2018-02-21T23:27:16.744Z,35.87
2018-02-21T23:29:44.936Z,38.33
2018-02-21T23:32:13.005Z,39.17
2018-02-21T23:34:41.089Z,38.60
2018-02-21T23:37:09.939Z,41.20
2018-02-21T23:39:38.052Z,36.23
2018-02-21T23:42:07.651Z,38.23
2018-02-21T23:44:35.730Z,40.13
2018-02-21T23:47:03.805Z,33.50
2018-02-21T23:49:32.074Z,34.67
2018-02-21T23:52:00.139Z,34.90
2018-02-21T23:54:28.223Z,34.60
2018-02-21T23:56:56.310Z,34.43
2018-02-21T23:59:24.468Z,34.37
